Time;durP1;ratioP1;P1;durP2;ratioP2;P2;SDS_P1;SDS_P2;PMS_P1;PMS_P2;Temp;Humidity;BMP_temperature;BMP_pressure;BME280_temperature;BME280_humidity;BME280_pressure;Samples;Min_cycle;Max_cycle;Signal;HPM_P1;HPM_P2
2021/08/25 00:01:31;;;;;;;22.58;13.10;;;20.10;58.90;;;;;;5057718;28;20409;-37
2021/08/25 00:03:57;;;;;;;20.08;12.65;;;20.10;58.60;;;;;;5057648;28;20021;-36
2021/08/25 00:06:22;;;;;;;18.02;12.10;;;20.10;58.40;;;;;;5057642;28;20033;-36
2021/08/25 00:08:48;;;;;;;16.25;12.07;;;20.10;58.40;;;;;;5057571;28;20036;-36
2021/08/25 00:11:14;;;;;;;19.73;13.65;;;20.10;58.70;;;;;;5057983;28;20476;-37
2021/08/25 00:13:40;;;;;;;24.48;13.95;;;20.00;59.00;;;;;;5057734;28;20029;-35
2021/08/25 00:16:05;;;;;;;18.75;13.40;;;20.00;58.90;;;;;;5057619;28;20071;-36
2021/08/25 00:18:31;;;;;;;23.15;14.60;;;20.00;59.00;;;;;;5057811;28;20033;-36
2021/08/25 00:20:58;;;;;;;22.35;14.73;;;20.00;58.90;;;;;;5057916;28;20029;-37
2021/08/25 00:23:24;;;;;;;21.52;14.98;;;19.90;59.10;;;;;;5057563;28;20116;-36
2021/08/25 00:25:53;;;;;;;17.98;13.65;;;19.90;59.20;;;;;;5057607;28;20033;-37
2021/08/25 00:28:19;;;;;;;18.35;13.48;;;19.90;59.30;;;;;;5057514;28;20333;-36
2021/08/25 00:30:45;;;;;;;19.55;13.88;;;19.90;59.50;;;;;;5056889;28;20431;-35
2021/08/25 00:33:11;;;;;;;21.88;14.70;;;19.80;59.90;;;;;;5057122;28;20033;-37
2021/08/25 00:35:36;;;;;;;21.15;15.00;;;19.80;60.10;;;;;;5057370;28;20025;-36
2021/08/25 00:38:02;;;;;;;21.15;13.63;;;19.80;60.20;;;;;;5057007;28;20047;-37
2021/08/25 00:40:28;;;;;;;21.40;13.13;;;19.80;60.30;;;;;;5057460;28;20024;-36
2021/08/25 00:42:53;;;;;;;17.73;11.65;;;19.80;60.30;;;;;;5057160;28;20037;-37
2021/08/25 00:45:19;;;;;;;21.02;13.95;;;19.80;60.10;;;;;;5057270;28;20025;-36
2021/08/25 00:47:45;;;;;;;19.40;13.30;;;19.80;59.60;;;;;;5056724;28;20329;-37
2021/08/25 00:50:15;;;;;;;19.55;13.57;;;19.80;60.10;;;;;;5057456;28;20052;-37
2021/08/25 00:52:41;;;;;;;19.88;13.32;;;19.80;59.70;;;;;;5056918;28;20340;-36
2021/08/25 00:55:14;;;;;;;16.95;12.30;;;19.80;59.50;;;;;;5055927;28;20414;-35
2021/08/25 00:57:42;;;;;;;18.02;12.40;;;19.80;59.50;;;;;;5056874;28;20079;-37
2021/08/25 01:00:10;;;;;;;21.05;13.13;;;19.80;59.30;;;;;;5057022;28;20082;-37
2021/08/25 01:02:55;;;;;;;18.35;11.88;;;19.80;59.30;;;;;;5056546;28;20037;-37
2021/08/25 01:05:22;;;;;;;16.30;11.45;;;19.80;59.20;;;;;;5056833;28;20431;-36
2021/08/25 01:07:48;;;;;;;15.90;11.25;;;19.80;59.10;;;;;;5056430;28;20037;-36
2021/08/25 01:10:31;;;;;;;17.40;12.07;;;19.90;58.60;;;;;;5056802;28;20091;-36
2021/08/25 01:13:02;;;;;;;19.80;11.85;;;19.90;58.90;;;;;;5056397;28;20033;-37
2021/08/25 01:15:32;;;;;;;15.77;11.27;;;20.00;58.90;;;;;;5056695;28;20037;-36
2021/08/25 01:17:59;;;;;;;14.68;11.00;;;20.00;58.80;;;;;;5056294;28;20072;-36
2021/08/25 01:20:26;;;;;;;15.85;12.48;;;20.00;58.90;;;;;;5056687;28;20033;-36
2021/08/25 01:22:52;;;;;;;15.30;11.02;;;20.00;59.10;;;;;;5056410;28;20417;-35
2021/08/25 01:25:22;;;;;;;15.88;11.52;;;20.00;58.70;;;;;;5056612;28;20036;-36
2021/08/25 01:27:57;;;;;;;18.02;13.80;;;20.00;58.40;;;;;;5056611;28;20298;-36
2021/08/25 01:30:28;;;;;;;15.65;11.65;;;20.00;58.70;;;;;;5056753;28;20036;-36
2021/08/25 01:32:54;;;;;;;22.00;16.70;;;20.00;58.90;;;;;;5056421;28;20076;-36
2021/08/25 01:35:20;;;;;;;15.88;11.85;;;20.00;58.70;;;;;;5056423;28;20056;-36
2021/08/25 01:37:46;;;;;;;12.93;10.00;;;20.00;58.40;;;;;;5056131;28;20455;-37
2021/08/25 01:40:12;;;;;;;15.02;10.05;;;20.00;58.30;;;;;;5056576;28;20028;-35
2021/08/25 01:42:38;;;;;;;13.48;9.80;;;20.00;58.00;;;;;;5055809;28;20025;-36
2021/08/25 01:45:05;;;;;;;14.55;10.25;;;20.00;58.00;;;;;;5056292;28;20131;-37
2021/08/25 01:47:30;;;;;;;13.38;11.10;;;20.00;58.70;;;;;;5055698;28;20032;-35
2021/08/25 01:49:56;;;;;;;15.32;11.10;;;20.00;58.80;;;;;;5056334;28;20029;-36
2021/08/25 01:52:22;;;;;;;14.27;9.90;;;20.00;58.30;;;;;;5055784;28;20376;-37
2021/08/25 01:54:52;;;;;;;14.40;10.40;;;20.00;58.10;;;;;;5056033;28;20025;-35
2021/08/25 01:57:18;;;;;;;13.07;9.43;;;20.00;57.80;;;;;;5055991;28;20029;-35
2021/08/25 01:59:44;;;;;;;16.58;10.77;;;20.00;58.00;;;;;;5055851;28;20099;-37
2021/08/25 02:02:10;;;;;;;15.82;9.48;;;20.00;58.10;;;;;;5055688;28;20033;-36
2021/08/25 02:04:37;;;;;;;13.77;9.82;;;20.00;57.80;;;;;;5056105;28;20409;-36
2021/08/25 02:07:04;;;;;;;14.32;8.90;;;20.10;57.50;;;;;;5056045;28;20120;-36
2021/08/25 02:09:29;;;;;;;12.90;9.13;;;20.10;57.30;;;;;;5055953;28;20059;-36
2021/08/25 02:11:55;;;;;;;14.25;9.52;;;20.10;57.30;;;;;;5055648;28;20033;-36
2021/08/25 02:14:20;;;;;;;17.65;10.43;;;20.10;57.40;;;;;;5055736;28;20048;-36
2021/08/25 02:16:46;;;;;;;12.02;9.15;;;20.10;57.10;;;;;;5055443;28;20045;-35
2021/08/25 02:19:12;;;;;;;14.30;8.70;;;20.10;56.80;;;;;;5055595;28;20082;-35
2021/08/25 02:21:38;;;;;;;12.35;10.68;;;20.10;56.70;;;;;;5054437;28;20032;-37
2021/08/25 02:24:04;;;;;;;12.32;9.68;;;20.20;57.00;;;;;;5055483;28;20037;-37
2021/08/25 02:26:30;;;;;;;12.65;10.32;;;20.10;57.20;;;;;;5055509;28;20029;-37
2021/08/25 02:28:55;;;;;;;13.68;9.25;;;20.10;57.30;;;;;;5055720;28;20021;-36
2021/08/25 02:31:22;;;;;;;12.40;9.15;;;20.10;57.10;;;;;;5055463;28;20029;-36
2021/08/25 02:33:48;;;;;;;19.27;9.48;;;20.00;57.30;;;;;;5055493;28;20029;-36
2021/08/25 02:36:15;;;;;;;14.07;9.75;;;20.00;57.10;;;;;;5055745;28;20044;-35
2021/08/25 02:38:41;;;;;;;13.68;8.73;;;20.00;56.90;;;;;;5055397;28;20029;-35
2021/08/25 02:41:09;;;;;;;13.35;9.18;;;20.00;56.80;;;;;;5055931;28;20301;-36
2021/08/25 02:43:35;;;;;;;17.90;11.07;;;20.00;56.90;;;;;;5055192;28;20036;-36
2021/08/25 02:46:02;;;;;;;12.93;9.25;;;20.00;57.00;;;;;;5055614;28;20113;-36
2021/08/25 02:48:27;;;;;;;14.10;9.57;;;20.00;57.40;;;;;;5055541;28;20385;-35
2021/08/25 02:50:53;;;;;;;15.85;11.38;;;20.00;57.30;;;;;;5055681;28;20068;-35
2021/08/25 02:53:19;;;;;;;13.95;9.68;;;19.90;57.10;;;;;;5055248;28;20112;-37
2021/08/25 02:55:46;;;;;;;13.90;9.82;;;19.90;57.00;;;;;;5058801;28;20025;-36
2021/08/25 02:58:12;;;;;;;13.30;9.73;;;20.00;57.10;;;;;;5058913;28;20056;-35
2021/08/25 03:00:38;;;;;;;14.23;9.45;;;19.90;57.10;;;;;;5057938;28;20417;-35
2021/08/25 03:03:03;;;;;;;14.07;10.38;;;19.90;57.10;;;;;;5059177;28;20127;-37
2021/08/25 03:05:29;;;;;;;13.93;8.85;;;19.90;57.10;;;;;;5058998;28;20453;-35
2021/08/25 03:07:55;;;;;;;19.85;11.43;;;20.00;57.10;;;;;;5058907;28;20033;-35
2021/08/25 03:10:20;;;;;;;16.13;10.10;;;20.00;57.30;;;;;;5059211;28;20033;-36
2021/08/25 03:12:46;;;;;;;14.35;10.85;;;20.00;56.70;;;;;;5058490;28;20040;-37
2021/08/25 03:15:12;;;;;;;15.50;10.07;;;20.00;56.80;;;;;;5058890;28;20029;-36
2021/08/25 03:17:38;;;;;;;17.00;11.18;;;20.00;56.80;;;;;;5058450;28;20096;-35
2021/08/25 03:20:09;;;;;;;12.95;9.38;;;20.00;56.70;;;;;;5058910;28;20074;-36
2021/08/25 03:22:36;;;;;;;15.30;10.73;;;20.00;56.80;;;;;;5058752;28;20032;-36
2021/08/25 03:25:02;;;;;;;12.45;9.93;;;20.10;57.30;;;;;;5058684;28;20037;-37
2021/08/25 03:27:28;;;;;;;15.45;10.18;;;20.10;57.70;;;;;;5058239;28;20064;-35
2021/08/25 03:29:54;;;;;;;16.23;10.93;;;20.10;57.50;;;;;;5058652;28;20471;-36
2021/08/25 03:32:19;;;;;;;16.00;10.82;;;20.10;58.00;;;;;;5058227;28;20325;-36
2021/08/25 03:34:45;;;;;;;20.95;10.95;;;20.10;58.30;;;;;;5058639;28;20033;-36
2021/08/25 03:37:11;;;;;;;16.48;11.05;;;20.20;58.00;;;;;;5058344;28;20021;-37
2021/08/25 03:39:37;;;;;;;14.80;10.65;;;20.20;57.70;;;;;;5058413;28;20435;-37
2021/08/25 03:42:03;;;;;;;15.90;10.52;;;20.20;58.20;;;;;;5057920;28;20029;-37
2021/08/25 03:44:28;;;;;;;14.80;10.70;;;20.20;58.50;;;;;;5058411;28;20044;-36
2021/08/25 03:46:54;;;;;;;16.67;10.48;;;20.30;58.40;;;;;;5057993;28;20413;-37
2021/08/25 03:49:20;;;;;;;14.30;10.25;;;20.30;58.10;;;;;;5057808;28;20040;-35
2021/08/25 03:51:46;;;;;;;16.65;11.80;;;20.30;58.80;;;;;;5058081;28;20025;-36
2021/08/25 03:54:11;;;;;;;19.13;11.23;;;20.40;58.30;;;;;;5058028;28;20039;-35
2021/08/25 03:56:37;;;;;;;18.35;10.68;;;20.40;57.90;;;;;;5058205;28;20401;-36
2021/08/25 03:59:03;;;;;;;31.05;11.60;;;20.40;57.60;;;;;;5057810;28;20037;-35
2021/08/25 04:01:30;;;;;;;19.27;10.85;;;20.40;57.50;;;;;;5058035;28;20112;-35
2021/08/25 04:03:55;;;;;;;16.27;10.57;;;20.40;57.30;;;;;;5057784;28;20318;-36
2021/08/25 04:06:21;;;;;;;15.52;10.60;;;20.40;56.20;;;;;;5056534;28;20029;-36
2021/08/25 04:08:47;;;;;;;19.52;11.30;;;20.40;56.50;;;;;;5057465;28;20025;-37
2021/08/25 04:11:19;;;;;;;17.83;11.77;;;20.40;56.30;;;;;;5057594;28;20029;-37
2021/08/25 04:13:45;;;;;;;19.80;13.15;;;20.40;55.90;;;;;;5057600;28;20028;-36
2021/08/25 04:16:11;;;;;;;23.23;12.45;;;20.40;56.00;;;;;;5057286;28;20364;-36
2021/08/25 04:18:37;;;;;;;21.25;14.25;;;20.40;56.00;;;;;;5057310;28;20100;-35
2021/08/25 04:21:03;;;;;;;22.08;14.65;;;20.50;56.20;;;;;;5057872;28;20268;-35
2021/08/25 04:23:28;;;;;;;23.30;15.18;;;20.40;56.50;;;;;;5057224;28;20025;-36
2021/08/25 04:25:54;;;;;;;26.83;15.15;;;20.50;56.40;;;;;;5057443;28;20348;-36
2021/08/25 04:28:20;;;;;;;22.25;14.90;;;20.40;56.30;;;;;;5057005;28;20040;-36
2021/08/25 04:30:46;;;;;;;26.65;15.75;;;20.50;56.30;;;;;;5057565;28;20082;-35
2021/08/25 04:33:11;;;;;;;70.65;18.70;;;20.50;56.40;;;;;;5056813;28;20025;-37
2021/08/25 04:35:37;;;;;;;36.35;19.48;;;20.50;56.50;;;;;;5056692;28;20025;-36
2021/08/25 04:38:03;;;;;;;45.72;21.55;;;20.50;56.30;;;;;;5056971;28;20364;-36
2021/08/25 04:40:28;;;;;;;32.17;17.77;;;20.50;56.30;;;;;;5057235;28;20028;-36
2021/08/25 04:42:54;;;;;;;29.50;19.38;;;20.50;56.30;;;;;;5056753;28;20042;-36
2021/08/25 04:45:20;;;;;;;29.42;19.08;;;20.50;56.40;;;;;;5056849;28;20083;-36
2021/08/25 04:47:45;;;;;;;27.50;18.23;;;20.50;56.30;;;;;;5056436;28;20032;-35
2021/08/25 04:50:11;;;;;;;31.20;16.58;;;20.50;56.50;;;;;;5057045;28;20071;-36
2021/08/25 04:52:37;;;;;;;29.70;18.52;;;20.60;56.50;;;;;;5056453;28;20037;-36
2021/08/25 04:55:03;;;;;;;33.38;19.23;;;20.60;56.60;;;;;;5056819;28;20048;-37
2021/08/25 04:57:29;;;;;;;25.63;17.42;;;20.60;56.80;;;;;;5056482;28;20024;-37
2021/08/25 04:59:55;;;;;;;25.15;17.50;;;20.60;56.70;;;;;;5056895;28;20029;-36
2021/08/25 05:02:21;;;;;;;23.92;16.38;;;20.70;56.60;;;;;;5056352;28;20025;-37
2021/08/25 05:04:47;;;;;;;27.98;17.75;;;20.70;56.30;;;;;;5056342;28;20407;-36
2021/08/25 05:07:14;;;;;;;26.58;18.38;;;20.80;56.40;;;;;;5056258;28;20063;-35
2021/08/25 05:09:39;;;;;;;26.70;17.08;;;20.80;56.20;;;;;;5056530;28;20379;-37
2021/08/25 05:12:05;;;;;;;29.42;18.80;;;20.80;56.20;;;;;;5056019;28;20029;-35
2021/08/25 05:14:31;;;;;;;26.30;16.92;;;20.90;56.20;;;;;;5056084;28;20028;-37
2021/08/25 05:16:57;;;;;;;25.38;16.83;;;20.90;56.20;;;;;;5055640;28;20057;-35
2021/08/25 05:19:22;;;;;;;30.00;18.40;;;20.90;57.00;;;;;;5056240;28;20025;-37
2021/08/25 05:21:48;;;;;;;32.20;18.17;;;21.00;56.60;;;;;;5056214;28;20048;-36
2021/08/25 05:24:14;;;;;;;29.58;17.65;;;21.00;56.70;;;;;;5055965;28;20458;-35
2021/08/25 05:26:39;;;;;;;25.35;18.23;;;21.00;56.50;;;;;;5055701;28;20054;-35
2021/08/25 05:29:05;;;;;;;27.00;17.90;;;21.10;56.70;;;;;;5055803;28;20032;-37
2021/08/25 05:31:31;;;;;;;27.80;18.95;;;21.10;56.40;;;;;;5055742;28;20326;-37
2021/08/25 05:33:58;;;;;;;28.27;18.00;;;21.20;56.40;;;;;;5055767;28;20029;-35
2021/08/25 05:36:24;;;;;;;28.73;17.90;;;21.20;57.10;;;;;;5055854;28;20041;-36
2021/08/25 05:38:50;;;;;;;27.73;18.05;;;21.20;57.40;;;;;;5055789;28;20017;-35
2021/08/25 05:41:16;;;;;;;26.45;17.63;;;21.30;57.70;;;;;;5056036;28;20029;-36
2021/08/25 05:43:41;;;;;;;34.97;18.10;;;21.40;57.70;;;;;;5055484;28;20061;-37
2021/08/25 05:46:07;;;;;;;25.13;16.70;;;21.40;57.80;;;;;;5056028;28;20112;-35
2021/08/25 05:48:33;;;;;;;27.20;18.30;;;21.50;57.70;;;;;;5055612;28;20040;-36
2021/08/25 05:50:58;;;;;;;26.75;17.52;;;21.60;57.90;;;;;;5055989;28;20051;-36
2021/08/25 05:53:25;;;;;;;27.65;17.40;;;21.60;57.40;;;;;;5055841;28;20051;-37
2021/08/25 05:55:51;;;;;;;28.05;18.02;;;21.70;57.10;;;;;;5055862;28;20408;-36
2021/08/25 05:58:16;;;;;;;28.55;19.80;;;21.70;57.00;;;;;;5055546;28;20037;-36
2021/08/25 06:00:42;;;;;;;31.05;20.42;;;21.70;56.80;;;;;;5055834;28;20021;-36
2021/08/25 06:03:08;;;;;;;34.92;20.02;;;21.80;56.40;;;;;;5055489;28;20036;-37
2021/08/25 06:05:34;;;;;;;29.17;18.70;;;21.80;56.40;;;;;;5055200;28;20075;-37
2021/08/25 06:07:59;;;;;;;26.50;16.92;;;21.80;56.30;;;;;;5055173;28;20033;-36
2021/08/25 06:10:25;;;;;;;23.17;16.15;;;21.90;56.70;;;;;;5055781;28;20065;-36
2021/08/25 06:12:51;;;;;;;24.33;15.38;;;21.90;56.70;;;;;;5055172;28;20094;-36
2021/08/25 06:15:16;;;;;;;24.50;17.27;;;21.90;56.90;;;;;;5055458;28;20480;-37
2021/08/25 06:17:42;;;;;;;25.13;16.52;;;22.00;57.30;;;;;;5054767;28;20059;-37
2021/08/25 06:20:08;;;;;;;23.13;15.77;;;22.00;57.80;;;;;;5055223;28;20025;-35
2021/08/25 06:22:34;;;;;;;34.10;20.98;;;22.00;58.20;;;;;;5055135;28;20078;-35
2021/08/25 06:25:00;;;;;;;31.77;21.15;;;22.10;58.70;;;;;;5055576;28;20029;-35
2021/08/25 06:27:26;;;;;;;34.25;22.92;;;22.10;58.90;;;;;;5055102;28;20117;-36
2021/08/25 06:29:51;;;;;;;35.38;22.05;;;22.10;59.10;;;;;;5057458;28;20036;-35
2021/08/25 06:32:17;;;;;;;38.35;22.40;;;22.20;59.50;;;;;;5059139;28;20380;-37
2021/08/25 06:34:43;;;;;;;27.23;18.35;;;22.20;59.70;;;;;;5059350;28;20060;-35
2021/08/25 06:37:09;;;;;;;25.88;18.27;;;22.30;59.90;;;;;;5058991;28;20225;-35
2021/08/25 06:39:35;;;;;;;25.10;16.30;;;22.30;60.10;;;;;;5059375;28;20025;-36
2021/08/25 06:42:00;;;;;;;23.60;14.77;;;22.30;60.50;;;;;;5058762;28;20033;-37
2021/08/25 06:44:26;;;;;;;21.50;14.35;;;22.40;61.30;;;;;;5058932;28;20121;-37
2021/08/25 06:46:52;;;;;;;21.42;15.27;;;22.40;60.90;;;;;;5058545;28;20056;-37
2021/08/25 06:49:18;;;;;;;31.80;18.45;;;22.40;60.90;;;;;;5058763;28;20087;-35
2021/08/25 06:51:44;;;;;;;23.60;16.55;;;22.40;61.00;;;;;;5058832;28;20417;-36
2021/08/25 06:54:09;;;;;;;31.85;22.20;;;22.50;60.90;;;;;;5058361;28;20037;-35
2021/08/25 06:56:35;;;;;;;47.55;29.13;;;22.50;60.70;;;;;;5058739;28;20263;-35
2021/08/25 06:59:01;;;;;;;51.00;34.55;;;22.50;60.70;;;;;;5058831;28;20298;-37
2021/08/25 07:01:26;;;;;;;31.63;21.00;;;22.50;61.00;;;;;;5058407;28;20063;-35
2021/08/25 07:03:52;;;;;;;27.00;20.13;;;22.50;60.90;;;;;;5058655;28;20324;-35
2021/08/25 07:06:19;;;;;;;27.48;18.98;;;22.50;60.90;;;;;;5058633;28;20029;-37
2021/08/25 07:08:46;;;;;;;22.63;16.98;;;22.60;61.30;;;;;;5058290;28;20067;-37
2021/08/25 07:11:11;;;;;;;23.58;14.07;;;22.60;61.50;;;;;;5058441;28;20024;-37
2021/08/25 07:13:37;;;;;;;18.33;14.00;;;22.60;61.30;;;;;;5058526;28;20293;-36
2021/08/25 07:16:03;;;;;;;18.17;13.43;;;22.60;61.40;;;;;;5057738;28;20063;-37
2021/08/25 07:18:29;;;;;;;19.27;13.32;;;22.60;61.70;;;;;;5058385;28;20025;-37
2021/08/25 07:20:54;;;;;;;19.95;14.13;;;22.60;62.00;;;;;;5058759;28;20408;-37
2021/08/25 07:23:20;;;;;;;17.40;13.55;;;22.70;62.20;;;;;;5058093;28;20029;-37
2021/08/25 07:25:46;;;;;;;25.23;17.13;;;22.70;62.10;;;;;;5058710;28;20033;-36
2021/08/25 07:28:11;;;;;;;23.70;16.00;;;22.70;61.90;;;;;;5058198;28;20025;-36
2021/08/25 07:30:37;;;;;;;21.70;16.17;;;22.70;62.10;;;;;;5058522;28;20401;-35
2021/08/25 07:33:03;;;;;;;20.92;16.55;;;22.70;62.40;;;;;;5057161;28;20087;-37
2021/08/25 07:35:30;;;;;;;33.47;21.98;;;22.60;62.80;;;;;;5058168;28;20040;-36
2021/08/25 07:37:57;;;;;;;31.02;21.80;;;22.60;63.00;;;;;;5058285;28;20029;-35
2021/08/25 07:40:24;;;;;;;33.97;21.67;;;22.60;63.20;;;;;;5058420;28;20024;-35
2021/08/25 07:42:50;;;;;;;31.50;20.25;;;22.50;63.20;;;;;;5057841;28;20052;-36
2021/08/25 07:45:15;;;;;;;23.92;18.25;;;22.50;63.30;;;;;;5058193;28;20429;-36
2021/08/25 07:47:41;;;;;;;23.33;17.95;;;22.50;63.30;;;;;;5057418;28;20417;-36
2021/08/25 07:50:08;;;;;;;20.83;15.57;;;22.40;63.10;;;;;;5058073;28;20431;-37
2021/08/25 07:52:34;;;;;;;24.50;17.27;;;22.40;62.10;;;;;;5057755;28;20036;-36
2021/08/25 07:55:00;;;;;;;20.40;15.18;;;22.30;61.70;;;;;;5057541;28;20471;-35
2021/08/25 07:57:25;;;;;;;23.20;17.35;;;22.30;61.60;;;;;;5057558;28;20025;-37
2021/08/25 07:59:51;;;;;;;24.98;18.00;;;22.30;61.70;;;;;;5057984;28;20282;-35
2021/08/25 08:02:17;;;;;;;27.67;17.42;;;22.20;61.70;;;;;;5057533;28;20036;-35
2021/08/25 08:04:42;;;;;;;24.98;18.05;;;22.10;62.00;;;;;;5057896;28;20482;-35
2021/08/25 08:07:08;;;;;;;30.38;16.58;;;22.20;62.30;;;;;;5056987;28;20076;-35
2021/08/25 08:09:34;;;;;;;27.27;20.40;;;22.20;62.40;;;;;;5057822;28;20162;-37
2021/08/25 08:11:59;;;;;;;27.30;18.70;;;22.20;62.40;;;;;;5052684;28;20422;-35
2021/08/25 08:14:26;;;;;;;22.30;15.63;;;22.20;62.70;;;;;;5057189;28;20122;-35
2021/08/25 08:16:55;;;;;;;21.65;15.70;;;22.20;62.60;;;;;;5056874;28;20049;-36
2021/08/25 08:19:29;;;;;;;28.00;14.90;;;22.20;62.40;;;;;;5057219;28;20036;-35
2021/08/25 08:21:55;;;;;;;23.05;16.95;;;22.30;62.40;;;;;;5056981;28;20029;-36
2021/08/25 08:24:21;;;;;;;27.00;14.52;;;22.30;62.30;;;;;;5056972;28;20332;-35
2021/08/25 08:26:47;;;;;;;24.73;16.23;;;22.30;62.70;;;;;;5056234;28;20025;-35
2021/08/25 08:29:13;;;;;;;70.88;53.13;;;22.30;62.30;;;;;;5056930;28;20061;-37
2021/08/25 08:31:39;;;;;;;23.23;19.42;;;22.30;62.60;;;;;;5056907;28;20116;-35
2021/08/25 08:34:05;;;;;;;23.85;17.50;;;22.40;62.80;;;;;;5056802;28;20113;-36
2021/08/25 08:36:31;;;;;;;22.80;15.27;;;22.40;62.80;;;;;;5056646;28;20037;-35
2021/08/25 08:38:57;;;;;;;23.55;16.98;;;22.40;62.90;;;;;;5056757;28;20436;-37
2021/08/25 08:41:22;;;;;;;20.73;16.05;;;22.40;63.20;;;;;;5056218;28;20026;-36
2021/08/25 08:43:50;;;;;;;19.23;14.68;;;22.40;63.50;;;;;;5056616;28;20032;-37
2021/08/25 08:46:18;;;;;;;18.85;15.43;;;22.40;63.50;;;;;;5056689;28;20025;-35
2021/08/25 08:48:44;;;;;;;19.50;14.65;;;22.40;63.40;;;;;;5056314;28;20039;-37
2021/08/25 08:51:11;;;;;;;19.88;15.55;;;22.30;63.50;;;;;;5056480;28;20033;-35
2021/08/25 08:53:37;;;;;;;26.70;18.17;;;22.30;63.80;;;;;;5056200;28;20041;-37
2021/08/25 08:56:04;;;;;;;19.83;15.93;;;22.30;64.40;;;;;;5056641;28;20090;-35
2021/08/25 08:58:29;;;;;;;17.90;14.68;;;22.30;64.60;;;;;;5056490;28;20029;-37
2021/08/25 09:00:56;;;;;;;18.33;14.30;;;22.30;64.50;;;;;;5056903;28;20032;-36
2021/08/25 09:03:29;;;;;;;22.80;16.52;;;22.30;64.50;;;;;;5056488;28;20036;-37
2021/08/25 09:05:59;;;;;;;22.23;13.90;;;22.30;64.70;;;;;;5056726;28;20028;-37
2021/08/25 09:08:27;;;;;;;23.95;15.70;;;22.20;64.40;;;;;;5056474;28;20037;-35
2021/08/25 09:11:22;;;;;;;20.77;14.57;;;22.20;64.50;;;;;;5056793;28;20041;-37
2021/08/25 09:13:50;;;;;;;20.80;15.45;;;22.20;64.60;;;;;;5055307;28;20455;-35
2021/08/25 09:16:32;;;;;;;22.98;15.32;;;22.20;65.00;;;;;;5055524;28;20053;-37
2021/08/25 09:19:09;;;;;;;19.48;15.52;;;22.20;65.30;;;;;;5054508;28;20020;-36
2021/08/25 09:21:39;;;;;;;22.35;16.08;;;22.20;65.20;;;;;;5055471;28;20321;-35
2021/08/25 09:24:05;;;;;;;24.00;18.23;;;22.10;65.30;;;;;;5055449;28;20431;-36
2021/08/25 09:26:32;;;;;;;22.58;15.77;;;22.10;66.20;;;;;;5055195;28;20265;-37
2021/08/25 09:29:17;;;;;;;23.42;18.42;;;22.10;66.60;;;;;;5055318;28;20064;-37
2021/08/25 09:31:47;;;;;;;24.48;17.70;;;22.10;66.20;;;;;;5054149;28;20490;-35
2021/08/25 09:34:33;;;;;;;25.17;18.42;;;22.10;66.80;;;;;;5055115;28;20037;-35
2021/08/25 09:37:05;;;;;;;23.27;18.67;;;22.10;66.70;;;;;;5055158;28;20079;-35
2021/08/25 09:39:31;;;;;;;28.80;17.52;;;22.10;67.90;;;;;;5055283;28;20036;-37
2021/08/25 09:41:58;;;;;;;18.85;16.38;;;22.20;68.10;;;;;;5055223;28;20429;-35
2021/08/25 09:44:23;;;;;;;22.00;15.63;;;22.20;68.70;;;;;;5055017;28;20057;-35
2021/08/25 09:46:52;;;;;;;21.23;15.63;;;22.20;68.10;;;;;;5055176;28;20064;-37
2021/08/25 09:49:18;;;;;;;23.08;16.38;;;22.30;68.10;;;;;;5055040;28;20112;-37
2021/08/25 09:51:44;;;;;;;23.73;14.93;;;22.40;67.70;;;;;;5054946;28;20037;-37
2021/08/25 09:54:16;;;;;;;19.45;14.00;;;22.40;67.20;;;;;;5054607;28;20033;-37
2021/08/25 09:56:43;;;;;;;22.60;16.02;;;22.50;66.60;;;;;;5055221;28;20025;-35
2021/08/25 09:59:11;;;;;;;24.65;16.80;;;22.60;66.30;;;;;;5054819;28;20028;-35
2021/08/25 10:01:39;;;;;;;25.60;18.40;;;22.60;66.10;;;;;;5054525;28;20436;-37
2021/08/25 10:04:07;;;;;;;24.35;15.75;;;22.70;65.70;;;;;;5053366;28;20114;-35
2021/08/25 10:06:36;;;;;;;30.85;19.75;;;22.70;65.30;;;;;;5054422;28;20159;-35
2021/08/25 10:09:05;;;;;;;23.85;18.17;;;22.70;65.00;;;;;;5055045;28;20029;-35
2021/08/25 10:11:33;;;;;;;30.20;18.10;;;22.70;64.70;;;;;;5054579;28;20108;-37
2021/08/25 10:13:59;;;;;;;27.38;19.13;;;22.80;64.40;;;;;;5054416;28;20453;-37
2021/08/25 10:16:47;;;;;;;24.10;19.15;;;22.80;64.20;;;;;;5010799;28;1259443;-35
2021/08/25 10:19:22;;;;;;;26.40;18.05;;;22.80;63.80;;;;;;5055362;28;20032;-37
2021/08/25 10:21:48;;;;;;;25.83;16.55;;;22.90;63.50;;;;;;5055111;28;20444;-37
2021/08/25 10:24:13;;;;;;;31.40;19.08;;;22.90;63.30;;;;;;5055291;28;20029;-36
2021/08/25 10:27:09;;;;;;;29.40;18.85;;;23.00;63.40;;;;;;5055231;28;20413;-37
2021/08/25 10:30:07;;;;;;;28.98;19.27;;;23.10;62.70;;;;;;5054783;28;20350;-35
2021/08/25 10:32:36;;;;;;;24.75;16.65;;;23.20;62.40;;;;;;5054719;28;20410;-35
2021/08/25 10:35:13;;;;;;;20.08;16.73;;;23.40;61.80;;;;;;5050218;28;20032;-37
2021/08/25 10:37:40;;;;;;;23.00;14.20;;;23.40;61.70;;;;;;5054793;28;20418;-37
2021/08/25 10:40:08;;;;;;;21.35;14.30;;;23.50;61.30;;;;;;5055239;28;20029;-35
2021/08/25 10:42:50;;;;;;;24.90;14.70;;;23.60;61.20;;;;;;5054737;28;20064;-36
2021/08/25 10:45:37;;;;;;;22.55;14.77;;;23.70;59.90;;;;;;5055526;28;20330;-35
2021/08/25 10:48:03;;;;;;;21.38;14.07;;;23.80;60.50;;;;;;5055118;28;20084;-36
2021/08/25 10:50:50;;;;;;;21.88;15.52;;;23.90;58.90;;;;;;5055150;28;20028;-35
2021/08/25 10:53:27;;;;;;;23.38;14.88;;;23.90;57.90;;;;;;5054718;28;20567;-37
2021/08/25 10:56:15;;;;;;;25.88;15.75;;;24.00;57.70;;;;;;5054939;28;20115;-37
2021/08/25 10:58:45;;;;;;;20.65;13.98;;;24.00;57.70;;;;;;5054720;28;20106;-37
2021/08/25 11:01:30;;;;;;;31.88;20.30;;;24.00;58.50;;;;;;5054497;28;20030;-36
2021/08/25 11:04:19;;;;;;;21.42;14.38;;;24.10;58.20;;;;;;5054733;28;20036;-35
2021/08/25 11:06:56;;;;;;;24.30;13.98;;;24.20;57.60;;;;;;5054709;28;20071;-37
2021/08/25 11:09:40;;;;;;;24.63;15.02;;;24.30;57.30;;;;;;5054766;28;20070;-37
2021/08/25 11:12:13;;;;;;;19.98;12.73;;;24.40;56.20;;;;;;5054587;28;20021;-35
2021/08/25 11:14:45;;;;;;;23.42;15.65;;;24.50;55.40;;;;;;5054476;28;20029;-36
2021/08/25 11:17:38;;;;;;;23.13;15.02;;;24.70;54.60;;;;;;5058202;28;20044;-37
2021/08/25 11:20:06;;;;;;;19.92;12.48;;;24.80;53.90;;;;;;5056226;28;20033;-37
2021/08/25 11:22:41;;;;;;;22.38;14.25;;;25.00;53.70;;;;;;5057000;28;20032;-36
2021/08/25 11:25:18;;;;;;;22.73;12.57;;;25.10;53.70;;;;;;5058387;28;20032;-37
2021/08/25 11:27:49;;;;;;;26.05;15.55;;;25.30;55.10;;;;;;5057906;28;20036;-35
2021/08/25 11:30:19;;;;;;;21.27;14.50;;;25.50;54.40;;;;;;5058505;28;20029;-36
2021/08/25 11:32:54;;;;;;;;;;;25.70;54.20;;;;;;5058116;28;20033;-35
2021/08/25 11:35:27;;;;;;;24.65;13.60;;;25.90;54.50;;;;;;5058258;28;19909;-35
2021/08/25 11:37:58;;;;;;;21.40;13.20;;;26.10;52.90;;;;;;5057999;28;20321;-35
2021/08/25 11:40:25;;;;;;;25.85;13.00;;;26.20;51.90;;;;;;5057388;28;20083;-37
2021/08/25 11:42:51;;;;;;;24.20;12.38;;;26.40;52.80;;;;;;5057454;28;20032;-36
2021/08/25 11:45:23;;;;;;;18.95;12.32;;;26.50;52.40;;;;;;5058111;28;20025;-37
2021/08/25 11:47:50;;;;;;;19.73;13.07;;;26.70;52.90;;;;;;5057454;28;20037;-37
2021/08/25 11:50:17;;;;;;;21.35;13.20;;;26.90;52.00;;;;;;5058201;28;20068;-35
2021/08/25 11:52:43;;;;;;;19.80;14.02;;;27.10;51.80;;;;;;5057443;28;20033;-35
2021/08/25 11:55:09;;;;;;;19.30;12.32;;;27.30;51.40;;;;;;5057959;28;20036;-37
2021/08/25 11:57:59;;;;;;;25.55;12.30;;;27.50;50.10;;;;;;5054588;28;20025;-36
2021/08/25 12:00:38;;;;;;;17.75;12.00;;;27.70;50.40;;;;;;5057712;28;20123;-35
2021/08/25 12:03:04;;;;;;;18.70;14.40;;;27.90;49.90;;;;;;5057119;28;20036;-36
2021/08/25 12:05:35;;;;;;;24.27;14.02;;;28.00;49.70;;;;;;5057687;28;20043;-36
2021/08/25 12:08:08;;;;;;;23.40;14.77;;;28.10;49.00;;;;;;5057395;28;20086;-37
2021/08/25 12:10:36;;;;;;;18.77;12.15;;;28.20;48.70;;;;;;5057841;28;20043;-37
2021/08/25 12:13:03;;;;;;;20.73;13.68;;;28.30;49.10;;;;;;5057312;28;20060;-37
2021/08/25 12:15:41;;;;;;;18.20;13.52;;;28.50;49.40;;;;;;5057315;28;20071;-37
2021/08/25 12:18:07;;;;;;;18.45;13.48;;;28.60;49.20;;;;;;5057474;28;20425;-36
2021/08/25 12:20:40;;;;;;;26.27;14.02;;;28.70;49.10;;;;;;5057207;28;20040;-37
2021/08/25 12:23:08;;;;;;;23.83;13.77;;;28.80;48.80;;;;;;5056618;28;20428;-37
2021/08/25 12:25:44;;;;;;;23.05;13.20;;;28.80;48.40;;;;;;5057163;28;20040;-36
2021/08/25 12:28:12;;;;;;;24.17;14.00;;;28.80;48.30;;;;;;5055775;28;20044;-37
2021/08/25 12:30:39;;;;;;;19.48;13.00;;;28.70;48.20;;;;;;5057212;28;20083;-37
2021/08/25 12:33:06;;;;;;;21.67;13.63;;;28.60;48.00;;;;;;5055358;28;20328;-36